createdAt,value
2023-02-04T00:00:10.041Z,3.56
2023-02-04T00:01:14.273Z,3.57
2023-02-04T00:02:18.626Z,3.58
2023-02-04T00:03:22.684Z,3.60
2023-02-04T00:04:26.851Z,3.61
2023-02-04T00:05:45.149Z,3.62
2023-02-04T00:06:48.011Z,3.60
2023-02-04T00:07:52.135Z,3.61
2023-02-04T00:08:56.372Z,3.63
2023-02-04T00:10:00.538Z,3.64
2023-02-04T00:11:04.723Z,3.65
2023-02-04T00:12:08.897Z,3.63
2023-02-04T00:13:13.087Z,3.65
2023-02-04T00:14:17.169Z,3.65
2023-02-04T00:15:21.438Z,3.65
2023-02-04T00:16:25.720Z,3.66
2023-02-04T00:17:29.669Z,3.67
2023-02-04T00:18:33.909Z,3.68
2023-02-04T00:19:38.060Z,3.69
2023-02-04T00:20:42.284Z,3.69
2023-02-04T00:21:46.453Z,3.69
2023-02-04T00:22:50.723Z,3.67
2023-02-04T00:23:56.376Z,3.68
2023-02-04T00:24:59.002Z,3.69
2023-02-04T00:26:03.196Z,3.69
2023-02-04T00:27:07.409Z,3.69
2023-02-04T00:28:11.712Z,3.70
2023-02-04T00:29:15.728Z,3.70
2023-02-04T00:30:19.938Z,3.69
2023-02-04T00:31:24.222Z,3.69
2023-02-04T00:32:28.429Z,3.69
2023-02-04T00:33:32.615Z,3.69
2023-02-04T00:34:36.846Z,3.69
2023-02-04T00:35:41.005Z,3.69
2023-02-04T00:36:45.199Z,3.71
2023-02-04T00:37:49.373Z,3.71
2023-02-04T00:38:53.537Z,3.71
2023-02-04T00:39:57.570Z,3.70
2023-02-04T00:41:01.793Z,3.69
2023-02-04T00:42:05.982Z,3.67
2023-02-04T00:43:10.084Z,3.65
2023-02-04T00:44:14.375Z,3.63
2023-02-04T00:45:18.469Z,3.62
2023-02-04T00:46:22.698Z,3.60
2023-02-04T00:47:26.851Z,3.57
2023-02-04T00:48:31.065Z,3.54
2023-02-04T00:49:35.273Z,3.53
2023-02-04T00:50:53.400Z,3.51
2023-02-04T00:51:56.369Z,3.50
2023-02-04T00:53:00.473Z,3.51
2023-02-04T00:54:04.623Z,3.51
2023-02-04T00:55:08.800Z,3.51
2023-02-04T00:56:12.879Z,3.51
2023-02-04T00:57:17.197Z,3.51
2023-02-04T00:58:21.228Z,3.50
2023-02-04T00:59:25.622Z,3.47
2023-02-04T01:00:30.229Z,3.46
2023-02-04T01:01:33.918Z,3.46
2023-02-04T01:02:38.187Z,3.46
2023-02-04T01:03:42.311Z,3.45
2023-02-04T01:04:46.530Z,3.45
2023-02-04T01:05:50.662Z,3.44
2023-02-04T01:06:54.988Z,3.45
2023-02-04T01:07:59.172Z,3.47
2023-02-04T01:09:03.320Z,3.47
2023-02-04T01:10:07.533Z,3.47
2023-02-04T01:11:11.701Z,3.49
2023-02-04T01:12:15.851Z,3.48
2023-02-04T01:13:20.039Z,3.48
2023-02-04T01:14:24.131Z,3.46
2023-02-04T01:15:28.353Z,3.46
2023-02-04T01:16:32.758Z,3.45
2023-02-04T01:17:36.903Z,3.45
2023-02-04T01:18:41.045Z,3.45
2023-02-04T01:19:45.240Z,3.47
2023-02-04T01:20:49.450Z,3.48
2023-02-04T01:21:53.622Z,3.50
2023-02-04T01:22:57.801Z,3.52
2023-02-04T01:24:02.067Z,3.52
2023-02-04T01:25:06.359Z,3.55
2023-02-04T01:26:10.475Z,3.56
2023-02-04T01:27:14.619Z,3.57
2023-02-04T01:28:18.865Z,3.57
2023-02-04T01:29:23.111Z,3.58
2023-02-04T01:30:27.142Z,3.58
2023-02-04T01:31:31.523Z,3.60
2023-02-04T01:32:35.548Z,3.60
2023-02-04T01:33:39.718Z,3.59
2023-02-04T01:34:44.068Z,3.58
2023-02-04T01:35:48.179Z,3.58
2023-02-04T01:36:52.341Z,3.56
2023-02-04T01:37:56.537Z,3.55
2023-02-04T01:39:00.721Z,3.56
2023-02-04T01:40:04.902Z,3.53
2023-02-04T01:41:08.991Z,3.51
2023-02-04T01:42:13.283Z,3.50
2023-02-04T01:43:17.432Z,3.48
2023-02-04T01:44:21.618Z,3.45
2023-02-04T01:45:25.803Z,3.42
2023-02-04T01:46:29.984Z,3.42
2023-02-04T01:47:34.218Z,3.39
2023-02-04T01:48:41.378Z,3.38
2023-02-04T01:49:44.706Z,3.37
2023-02-04T01:50:48.889Z,3.35
2023-02-04T01:51:52.992Z,3.35
2023-02-04T01:52:57.168Z,3.33
2023-02-04T01:54:01.353Z,3.33
2023-02-04T01:55:05.453Z,3.31
2023-02-04T01:56:09.552Z,3.30
2023-02-04T01:57:13.801Z,3.29
2023-02-04T01:58:18.065Z,3.26
2023-02-04T01:59:22.347Z,3.24
2023-02-04T02:00:26.432Z,3.21
2023-02-04T02:01:30.827Z,3.18
2023-02-04T02:02:35.057Z,3.18
2023-02-04T02:03:39.090Z,3.18
2023-02-04T02:04:43.268Z,3.17
2023-02-04T02:05:50.461Z,3.17
2023-02-04T02:06:53.701Z,3.18
2023-02-04T02:07:57.864Z,3.18
2023-02-04T02:09:02.067Z,3.19
2023-02-04T02:10:06.294Z,3.21
2023-02-04T02:11:10.408Z,3.22
2023-02-04T02:12:14.535Z,3.24
2023-02-04T02:13:18.831Z,3.24
2023-02-04T02:14:22.966Z,3.26
2023-02-04T02:15:27.112Z,3.27
2023-02-04T02:16:31.395Z,3.27
2023-02-04T02:17:35.467Z,3.29
2023-02-04T02:18:39.594Z,3.30
2023-02-04T02:19:43.808Z,3.30
2023-02-04T02:20:47.964Z,3.31
2023-02-04T02:21:52.184Z,3.32
2023-02-04T02:22:56.366Z,3.32
2023-02-04T02:24:00.574Z,3.33
2023-02-04T02:25:04.767Z,3.32
2023-02-04T02:26:08.914Z,3.33
2023-02-04T02:27:13.102Z,3.34
2023-02-04T02:28:17.351Z,3.35
2023-02-04T02:29:21.539Z,3.35
2023-02-04T02:30:25.974Z,3.35
2023-02-04T02:31:29.953Z,3.34
2023-02-04T02:32:34.012Z,3.32
2023-02-04T02:33:38.178Z,3.30
2023-02-04T02:34:42.327Z,3.29
2023-02-04T02:35:46.595Z,3.28
2023-02-04T02:36:50.735Z,3.27
2023-02-04T02:38:08.935Z,3.27
2023-02-04T02:39:12.012Z,3.26
2023-02-04T02:40:16.258Z,3.26
2023-02-04T02:41:20.366Z,3.24
2023-02-04T02:42:24.525Z,3.24
2023-02-04T02:43:28.821Z,3.21
2023-02-04T02:44:32.931Z,3.19
2023-02-04T02:45:37.150Z,3.16
2023-02-04T02:46:41.313Z,3.14
2023-02-04T02:47:45.472Z,3.13
2023-02-04T02:48:49.634Z,3.10
2023-02-04T02:49:53.801Z,3.10
2023-02-04T02:50:57.971Z,3.10
2023-02-04T02:52:02.225Z,3.09
2023-02-04T02:53:06.351Z,3.08
2023-02-04T02:54:10.543Z,3.07
2023-02-04T02:55:14.754Z,3.06
2023-02-04T02:56:18.920Z,3.05
2023-02-04T02:57:26.192Z,3.06
2023-02-04T02:58:29.461Z,3.04
2023-02-04T02:59:33.600Z,3.04
2023-02-04T03:00:37.783Z,3.03
2023-02-04T03:01:41.963Z,2.98
2023-02-04T03:02:46.220Z,2.96
2023-02-04T03:03:50.334Z,2.93
2023-02-04T03:04:54.612Z,2.89
2023-02-04T03:05:58.718Z,2.87
2023-02-04T03:07:02.803Z,2.84
2023-02-04T03:08:07.045Z,2.81
2023-02-04T03:09:11.146Z,2.80
2023-02-04T03:10:15.365Z,2.78
2023-02-04T03:11:19.585Z,2.74
2023-02-04T03:12:23.690Z,2.74
2023-02-04T03:13:27.964Z,2.73
2023-02-04T03:14:32.076Z,2.73
2023-02-04T03:15:36.354Z,2.72
2023-02-04T03:16:40.547Z,2.71
2023-02-04T03:17:44.717Z,2.68
2023-02-04T03:18:48.857Z,2.68
2023-02-04T03:19:53.147Z,2.66
2023-02-04T03:20:57.250Z,2.65
2023-02-04T03:22:01.356Z,2.64
2023-02-04T03:23:05.589Z,2.61
2023-02-04T03:24:09.662Z,2.59
2023-02-04T03:25:13.858Z,2.57
2023-02-04T03:26:18.036Z,2.56
2023-02-04T03:27:22.210Z,2.55
2023-02-04T03:28:26.409Z,2.55
2023-02-04T03:29:30.419Z,2.56
2023-02-04T03:30:34.641Z,2.57
2023-02-04T03:31:39.034Z,2.59
2023-02-04T03:32:43.862Z,2.61
2023-02-04T03:33:47.737Z,2.61
2023-02-04T03:34:51.891Z,2.60
2023-02-04T03:35:56.156Z,2.58
2023-02-04T03:37:00.255Z,2.60
2023-02-04T03:38:04.364Z,2.61
2023-02-04T03:39:08.632Z,2.61
2023-02-04T03:40:12.653Z,2.61
2023-02-04T03:41:16.803Z,2.62
2023-02-04T03:42:21.031Z,2.63
2023-02-04T03:43:25.217Z,2.64
2023-02-04T03:44:29.489Z,2.64
2023-02-04T03:45:44.721Z,2.63
2023-02-04T03:46:37.854Z,2.62
2023-02-04T03:47:41.863Z,2.61
2023-02-04T03:48:46.211Z,2.61
2023-02-04T03:49:50.239Z,2.61
2023-02-04T03:50:54.466Z,2.61
2023-02-04T03:51:58.636Z,2.60
2023-02-04T03:53:02.744Z,2.61
2023-02-04T03:54:06.853Z,2.59
2023-02-04T03:55:10.961Z,2.59
2023-02-04T03:56:15.205Z,2.58
2023-02-04T03:57:19.441Z,2.58
2023-02-04T03:58:23.510Z,2.58
2023-02-04T03:59:27.738Z,2.57
2023-02-04T04:00:32.343Z,2.56
2023-02-04T04:01:36.117Z,2.56
2023-02-04T04:02:40.311Z,2.57
2023-02-04T04:03:44.341Z,2.55
2023-02-04T04:04:48.588Z,2.53
2023-02-04T04:05:52.912Z,2.53
2023-02-04T04:06:56.968Z,2.53
2023-02-04T04:08:01.205Z,2.52
2023-02-04T04:09:05.425Z,2.51
2023-02-04T04:10:09.661Z,2.50
2023-02-04T04:11:13.917Z,2.50
2023-02-04T04:12:18.043Z,2.52
2023-02-04T04:13:22.183Z,2.52
2023-02-04T04:14:26.368Z,2.50
2023-02-04T04:15:30.721Z,2.51
2023-02-04T04:16:34.846Z,2.52
2023-02-04T04:17:38.989Z,2.51
2023-02-04T04:18:43.222Z,2.50
2023-02-04T04:19:47.420Z,2.49
2023-02-04T04:20:51.768Z,2.49
2023-02-04T04:21:55.906Z,2.47
2023-02-04T04:23:00.033Z,2.45
2023-02-04T04:24:04.356Z,2.44
2023-02-04T04:25:08.474Z,2.41
2023-02-04T04:26:12.544Z,2.38
2023-02-04T04:27:16.843Z,2.38
2023-02-04T04:28:20.980Z,2.35
2023-02-04T04:29:25.271Z,2.34
2023-02-04T04:30:29.912Z,2.32
2023-02-04T04:31:33.687Z,2.30
2023-02-04T04:32:37.767Z,2.28
2023-02-04T04:33:41.975Z,2.24
2023-02-04T04:34:46.165Z,2.23
2023-02-04T04:35:50.248Z,2.21
2023-02-04T04:36:54.436Z,2.18
2023-02-04T04:37:58.601Z,2.17
2023-02-04T04:39:02.773Z,2.16
2023-02-04T04:40:06.938Z,2.15
2023-02-04T04:41:11.114Z,2.16
2023-02-04T04:42:15.243Z,2.17
2023-02-04T04:43:33.588Z,2.16
2023-02-04T04:44:36.747Z,2.15
2023-02-04T04:45:40.815Z,2.14
2023-02-04T04:46:44.989Z,2.17
2023-02-04T04:47:49.094Z,2.16
2023-02-04T04:48:53.315Z,2.16
2023-02-04T04:49:57.452Z,2.15
2023-02-04T04:51:01.638Z,2.16
2023-02-04T04:52:05.706Z,2.16
2023-02-04T04:53:09.920Z,2.16
2023-02-04T04:54:14.040Z,2.17
2023-02-04T04:55:18.302Z,2.17
2023-02-04T04:56:22.297Z,2.18
2023-02-04T04:57:26.536Z,2.19
2023-02-04T04:58:30.709Z,2.20
2023-02-04T04:59:34.786Z,2.21
2023-02-04T05:00:38.923Z,2.25
2023-02-04T05:01:43.093Z,2.26
2023-02-04T05:02:47.367Z,2.28
2023-02-04T05:03:51.528Z,2.30
2023-02-04T05:04:55.735Z,2.31
2023-02-04T05:05:59.835Z,2.31
2023-02-04T05:07:04.007Z,2.31
2023-02-04T05:08:08.144Z,2.32
2023-02-04T05:09:12.496Z,2.34
2023-02-04T05:10:16.579Z,2.34
2023-02-04T05:11:20.784Z,2.34
2023-02-04T05:12:24.936Z,2.33
2023-02-04T05:13:32.213Z,2.32
2023-02-04T05:14:35.393Z,2.29
2023-02-04T05:15:39.544Z,2.26
2023-02-04T05:16:43.687Z,2.24
2023-02-04T05:17:48.033Z,2.22
2023-02-04T05:18:51.970Z,2.21
2023-02-04T05:19:56.135Z,2.20
2023-02-04T05:21:00.221Z,2.18
2023-02-04T05:22:04.444Z,2.18
2023-02-04T05:23:08.652Z,2.17
2023-02-04T05:24:12.869Z,2.18
2023-02-04T05:25:17.118Z,2.17
2023-02-04T05:26:29.940Z,2.15
2023-02-04T05:27:25.488Z,2.14
2023-02-04T05:28:29.575Z,2.15
2023-02-04T05:29:33.886Z,2.13
2023-02-04T05:30:38.104Z,2.11
2023-02-04T05:31:42.464Z,2.09
2023-02-04T05:32:46.494Z,2.08
2023-02-04T05:33:50.662Z,2.07
2023-02-04T05:34:54.943Z,2.05
2023-02-04T05:35:59.149Z,2.03
2023-02-04T05:37:03.379Z,2.01
2023-02-04T05:38:07.529Z,1.99
2023-02-04T05:39:25.851Z,1.99
2023-02-04T05:40:29.022Z,1.96
2023-02-04T05:41:33.061Z,1.96
2023-02-04T05:42:37.158Z,1.95
2023-02-04T05:43:41.210Z,1.96
2023-02-04T05:44:45.468Z,1.93
2023-02-04T05:45:49.593Z,1.91
2023-02-04T05:46:53.609Z,1.89
2023-02-04T05:47:57.918Z,1.86
2023-02-04T05:49:01.964Z,1.85
2023-02-04T05:50:06.241Z,1.85
2023-02-04T05:51:10.366Z,1.83
2023-02-04T05:52:14.496Z,1.82
2023-02-04T05:53:18.547Z,1.82
2023-02-04T05:54:22.674Z,1.82
2023-02-04T05:55:26.915Z,1.82
2023-02-04T05:56:31.044Z,1.82
2023-02-04T05:57:35.230Z,1.80
2023-02-04T05:58:40.071Z,1.77
2023-02-04T05:59:43.549Z,1.74
2023-02-04T06:00:47.738Z,1.73
2023-02-04T06:01:51.944Z,1.71
2023-02-04T06:02:56.176Z,1.72
2023-02-04T06:04:00.420Z,1.72
2023-02-04T06:05:04.554Z,1.73
2023-02-04T06:06:08.713Z,1.71
2023-02-04T06:07:12.919Z,1.70
2023-02-04T06:08:17.112Z,1.70
2023-02-04T06:09:21.133Z,1.69
2023-02-04T06:10:25.510Z,1.70
2023-02-04T06:11:29.527Z,1.68
2023-02-04T06:12:33.695Z,1.67
2023-02-04T06:13:37.906Z,1.68
2023-02-04T06:14:42.139Z,1.70
2023-02-04T06:15:46.293Z,1.71
2023-02-04T06:16:50.571Z,1.71
2023-02-04T06:17:54.618Z,1.70
2023-02-04T06:18:58.782Z,1.68
2023-02-04T06:20:02.900Z,1.66
2023-02-04T06:21:07.027Z,1.65
2023-02-04T06:22:11.262Z,1.65
2023-02-04T06:24:42.332Z,1.66
2023-02-04T06:25:46.349Z,1.65
2023-02-04T06:26:50.681Z,1.65
2023-02-04T06:27:54.818Z,1.66
2023-02-04T06:28:59.015Z,1.65
2023-02-04T06:30:03.162Z,1.64
2023-02-04T06:31:07.439Z,1.65
2023-02-04T06:32:11.492Z,1.63
2023-02-04T06:33:15.703Z,1.65
2023-02-04T06:34:19.906Z,1.67
2023-02-04T06:35:24.037Z,1.68
2023-02-04T06:36:28.227Z,1.68
2023-02-04T06:37:32.283Z,1.67
2023-02-04T06:38:36.496Z,1.64
2023-02-04T06:39:40.749Z,1.61
2023-02-04T06:40:44.976Z,1.56
2023-02-04T06:41:49.104Z,1.54
2023-02-04T06:42:53.346Z,1.56
2023-02-04T06:43:57.500Z,1.57
2023-02-04T06:45:01.559Z,1.56
2023-02-04T06:46:05.811Z,1.56
2023-02-04T06:47:09.904Z,1.58
2023-02-04T06:48:14.122Z,1.58
2023-02-04T06:49:18.110Z,1.59
2023-02-04T06:50:22.436Z,1.60
2023-02-04T06:51:26.802Z,1.61
2023-02-04T06:52:30.973Z,1.62
2023-02-04T06:53:35.039Z,1.63
2023-02-04T06:54:39.237Z,1.66
2023-02-04T06:55:43.516Z,1.66
2023-02-04T06:56:47.754Z,1.67
2023-02-04T06:57:51.897Z,1.69
2023-02-04T06:58:55.950Z,1.70
2023-02-04T07:00:01.056Z,1.71
2023-02-04T07:01:04.853Z,1.70
2023-02-04T07:02:08.929Z,1.70
2023-02-04T07:03:13.088Z,1.71
2023-02-04T07:04:17.322Z,1.72
2023-02-04T07:05:21.549Z,1.72
2023-02-04T07:06:25.592Z,1.71
2023-02-04T07:07:29.666Z,1.72
2023-02-04T07:08:33.876Z,1.71
2023-02-04T07:09:38.083Z,1.72
2023-02-04T07:10:42.285Z,1.74
2023-02-04T07:11:46.319Z,1.77
2023-02-04T07:12:50.544Z,1.79
2023-02-04T07:13:54.538Z,1.81
2023-02-04T07:14:58.826Z,1.82
2023-02-04T07:16:03.076Z,1.85
2023-02-04T07:17:07.110Z,1.87
2023-02-04T07:18:11.512Z,1.88
2023-02-04T07:19:15.634Z,1.90
2023-02-04T07:20:19.819Z,1.90
2023-02-04T07:21:24.010Z,1.90
2023-02-04T07:22:28.039Z,1.89
2023-02-04T07:23:32.283Z,1.89
2023-02-04T07:24:36.513Z,1.89
2023-02-04T07:25:41.753Z,1.88
2023-02-04T07:26:46.556Z,1.89
2023-02-04T07:27:50.856Z,1.89
2023-02-04T07:28:55.041Z,1.88
2023-02-04T07:30:02.210Z,1.88
2023-02-04T07:31:05.546Z,1.90
2023-02-04T07:32:09.756Z,1.90
2023-02-04T07:33:13.709Z,1.90
2023-02-04T07:34:17.908Z,1.91
2023-02-04T07:35:22.054Z,1.90
2023-02-04T07:36:26.329Z,1.91
2023-02-04T07:37:30.302Z,1.93
2023-02-04T07:38:34.633Z,1.95
2023-02-04T07:39:38.644Z,1.95
2023-02-04T07:40:42.849Z,1.98
2023-02-04T07:41:47.103Z,1.98
2023-02-04T07:42:51.123Z,1.97
2023-02-04T07:43:55.296Z,1.96
2023-02-04T07:44:59.485Z,1.95
2023-02-04T07:46:03.672Z,1.93
2023-02-04T07:47:07.812Z,1.94
2023-02-04T07:48:12.024Z,1.93
2023-02-04T07:49:16.218Z,1.94
2023-02-04T07:50:21.273Z,1.93
2023-02-04T07:51:26.508Z,1.94
2023-02-04T07:52:29.145Z,1.95
2023-02-04T07:53:33.395Z,1.94
2023-02-04T07:54:37.456Z,1.95
2023-02-04T07:55:41.693Z,1.94
2023-02-04T07:56:45.760Z,1.94
2023-02-04T07:57:49.982Z,1.93
2023-02-04T07:58:54.157Z,1.94
2023-02-04T07:59:58.425Z,1.95
2023-02-04T08:01:02.664Z,1.97
2023-02-04T08:02:06.647Z,1.99
2023-02-04T08:03:10.951Z,2.00
2023-02-04T08:04:15.251Z,2.03
2023-02-04T08:05:19.374Z,2.05
2023-02-04T08:06:23.557Z,2.09
2023-02-04T08:07:27.700Z,2.11
2023-02-04T08:08:31.818Z,2.12
2023-02-04T08:09:36.020Z,2.09
2023-02-04T08:10:40.281Z,2.08
2023-02-04T08:11:44.402Z,2.06
2023-02-04T08:12:48.851Z,2.05
2023-02-04T08:13:52.904Z,2.06
2023-02-04T08:14:57.251Z,2.06
2023-02-04T08:16:01.334Z,2.03
2023-02-04T08:17:05.423Z,2.05
2023-02-04T08:18:09.522Z,2.07
2023-02-04T08:19:13.743Z,2.05
2023-02-04T08:20:17.918Z,2.06
2023-02-04T08:21:22.162Z,2.07
2023-02-04T08:22:26.303Z,2.07
2023-02-04T08:23:30.485Z,2.08
2023-02-04T08:24:34.632Z,2.09
2023-02-04T08:25:38.817Z,2.09
2023-02-04T08:26:42.912Z,2.07
2023-02-04T08:27:47.150Z,2.04
2023-02-04T08:28:51.263Z,2.01
2023-02-04T08:29:55.518Z,1.97
2023-02-04T08:30:59.759Z,1.95
2023-02-04T08:32:03.746Z,1.92
2023-02-04T08:33:07.960Z,1.92
2023-02-04T08:34:12.182Z,1.93
2023-02-04T08:35:17.244Z,1.93
2023-02-04T08:36:21.020Z,1.92
2023-02-04T08:37:25.181Z,1.91
2023-02-04T08:38:29.372Z,1.91
2023-02-04T08:39:33.522Z,1.91
2023-02-04T08:40:37.753Z,1.91
2023-02-04T08:41:41.908Z,1.87
2023-02-04T08:42:46.159Z,1.85
2023-02-04T08:43:50.287Z,1.82
2023-02-04T08:44:54.516Z,1.79
2023-02-04T08:45:58.701Z,1.77
2023-02-04T08:47:02.932Z,1.77
2023-02-04T08:48:07.032Z,1.76
2023-02-04T08:49:11.251Z,1.74
2023-02-04T08:50:29.719Z,1.72
2023-02-04T08:51:32.428Z,1.69
2023-02-04T08:52:36.566Z,1.67
2023-02-04T08:53:40.876Z,1.63
2023-02-04T08:54:44.899Z,1.60
2023-02-04T08:55:49.123Z,1.58
2023-02-04T08:56:53.316Z,1.57
2023-02-04T08:57:57.463Z,1.56
2023-02-04T08:59:01.796Z,1.57
2023-02-04T09:00:05.900Z,1.59
2023-02-04T09:01:10.182Z,1.62
2023-02-04T09:02:14.380Z,1.64
2023-02-04T09:03:18.299Z,1.66
2023-02-04T09:04:22.556Z,1.69
2023-02-04T09:05:26.679Z,1.71
2023-02-04T09:06:30.919Z,1.73
2023-02-04T09:07:35.135Z,1.76
2023-02-04T09:08:40.165Z,1.78
2023-02-04T09:09:43.926Z,1.79
2023-02-04T09:10:48.140Z,1.80
2023-02-04T09:11:52.296Z,1.81
2023-02-04T09:12:56.430Z,1.85
2023-02-04T09:14:00.609Z,1.87
2023-02-04T09:15:04.807Z,1.91
2023-02-04T09:16:08.976Z,1.93
2023-02-04T09:17:13.238Z,1.96
2023-02-04T09:18:17.452Z,1.97
2023-02-04T09:19:21.568Z,2.01
2023-02-04T09:20:25.772Z,2.05
2023-02-04T09:21:29.805Z,2.09
2023-02-04T09:22:34.037Z,2.10
2023-02-04T09:23:38.167Z,2.11
2023-02-04T09:24:42.297Z,2.12
2023-02-04T09:25:46.566Z,2.13
2023-02-04T09:26:50.818Z,2.17
2023-02-04T09:27:55.172Z,2.20
2023-02-04T09:28:59.245Z,2.23
2023-02-04T09:30:03.438Z,2.24
2023-02-04T09:31:07.736Z,2.21
2023-02-04T09:32:11.850Z,2.23
2023-02-04T09:33:15.997Z,2.25
2023-02-04T09:34:20.180Z,2.25
2023-02-04T09:35:24.250Z,2.27
2023-02-04T09:36:28.525Z,2.30
2023-02-04T09:37:32.806Z,2.32
2023-02-04T09:38:36.922Z,2.27
2023-02-04T09:39:41.106Z,2.22
2023-02-04T09:40:45.282Z,2.18
2023-02-04T09:41:49.530Z,2.16
2023-02-04T09:42:53.753Z,2.11
2023-02-04T09:43:57.930Z,2.09
2023-02-04T09:45:02.060Z,2.07
2023-02-04T09:46:06.325Z,2.05
2023-02-04T09:47:10.417Z,2.02
2023-02-04T09:48:14.517Z,1.98
2023-02-04T09:49:18.680Z,1.96
2023-02-04T09:50:22.906Z,1.95
2023-02-04T09:51:27.030Z,1.92
2023-02-04T09:52:31.215Z,1.91
2023-02-04T09:53:35.324Z,1.90
2023-02-04T09:54:39.531Z,1.93
2023-02-04T09:55:43.705Z,1.96
2023-02-04T09:56:47.880Z,1.97
2023-02-04T09:57:52.012Z,1.93
2023-02-04T09:58:56.147Z,1.87
2023-02-04T10:00:00.314Z,1.83
2023-02-04T10:02:31.656Z,1.79
2023-02-04T10:03:35.834Z,1.78
2023-02-04T10:04:39.905Z,1.75
2023-02-04T10:05:44.010Z,1.73
2023-02-04T10:06:48.154Z,1.69
2023-02-04T10:07:52.351Z,1.68
2023-02-04T10:08:56.477Z,1.67
2023-02-04T10:10:00.671Z,1.64
2023-02-04T10:11:04.820Z,1.66
2023-02-04T10:12:09.129Z,1.70
2023-02-04T10:13:13.220Z,1.73
2023-02-04T10:14:17.390Z,1.76
2023-02-04T10:15:21.573Z,1.81
2023-02-04T10:16:25.800Z,1.85
2023-02-04T10:17:30.035Z,1.88
2023-02-04T10:18:34.162Z,1.90
2023-02-04T10:19:38.358Z,1.90
2023-02-04T10:20:42.549Z,1.89
2023-02-04T10:21:46.786Z,1.90
2023-02-04T10:22:50.972Z,1.88
2023-02-04T10:23:55.137Z,1.81
2023-02-04T10:24:59.283Z,1.83
2023-02-04T10:26:03.433Z,1.81
2023-02-04T10:27:07.630Z,1.82
2023-02-04T10:28:11.953Z,1.78
2023-02-04T10:29:16.109Z,1.72
2023-02-04T10:30:20.497Z,1.63
2023-02-04T10:31:24.599Z,1.61
2023-02-04T10:32:28.660Z,1.60
2023-02-04T10:33:32.820Z,1.58
2023-02-04T10:34:37.124Z,1.54
2023-02-04T10:35:55.268Z,1.51
2023-02-04T10:36:57.957Z,1.50
2023-02-04T10:38:02.030Z,1.47
2023-02-04T10:39:06.146Z,1.47
2023-02-04T10:40:10.256Z,1.41
2023-02-04T10:41:14.466Z,1.42
2023-02-04T10:42:18.619Z,1.48
2023-02-04T10:43:22.760Z,1.53
2023-02-04T10:44:26.895Z,1.59
2023-02-04T10:45:31.114Z,1.59
2023-02-04T10:46:35.289Z,1.58
2023-02-04T10:47:39.449Z,1.61
2023-02-04T10:48:43.650Z,1.66
2023-02-04T10:49:47.845Z,1.64
2023-02-04T10:50:52.012Z,1.63
2023-02-04T10:51:57.868Z,1.62
2023-02-04T10:53:00.401Z,1.58
2023-02-04T10:54:18.669Z,1.57
2023-02-04T10:55:21.614Z,1.54
2023-02-04T10:56:25.669Z,1.54
2023-02-04T10:57:29.928Z,1.53
2023-02-04T10:58:34.090Z,1.49
2023-02-04T10:59:38.236Z,1.49
2023-02-04T11:00:42.289Z,1.48
2023-02-04T11:01:46.616Z,1.45
2023-02-04T11:02:50.745Z,1.41
2023-02-04T11:03:54.909Z,1.41
2023-02-04T11:04:59.126Z,1.41
2023-02-04T11:06:03.261Z,1.43
2023-02-04T11:07:07.457Z,1.47
2023-02-04T11:08:11.682Z,1.50
2023-02-04T11:09:15.825Z,1.49
2023-02-04T11:10:20.049Z,1.53
2023-02-04T11:11:24.163Z,1.58
2023-02-04T11:12:28.381Z,1.64
2023-02-04T11:13:32.531Z,1.67
2023-02-04T11:14:36.801Z,1.64
2023-02-04T11:15:41.202Z,1.63
2023-02-04T11:16:45.124Z,1.58
2023-02-04T11:17:49.384Z,1.59
2023-02-04T11:18:53.619Z,1.56
2023-02-04T11:19:57.627Z,1.53
2023-02-04T11:21:01.839Z,1.49
2023-02-04T11:22:06.051Z,1.44
2023-02-04T11:23:10.217Z,1.39
2023-02-04T11:24:14.396Z,1.32
2023-02-04T11:25:19.843Z,1.33
2023-02-04T11:26:23.500Z,1.31
2023-02-04T11:27:27.507Z,1.30
2023-02-04T11:28:31.693Z,1.32
2023-02-04T11:29:35.841Z,1.36
2023-02-04T11:30:40.295Z,1.41
2023-02-04T11:31:44.510Z,1.48
2023-02-04T11:32:48.466Z,1.57
2023-02-04T11:33:52.902Z,1.62
2023-02-04T11:34:57.534Z,1.67
2023-02-04T11:36:01.484Z,1.68
2023-02-04T11:37:05.479Z,1.71
2023-02-04T11:38:09.752Z,1.71
2023-02-04T11:39:14.208Z,1.65
2023-02-04T11:40:18.399Z,1.62
2023-02-04T11:41:22.354Z,1.56
2023-02-04T11:42:26.578Z,1.53
2023-02-04T11:43:30.717Z,1.49
2023-02-04T11:44:34.973Z,1.48
2023-02-04T11:45:39.155Z,1.45
2023-02-04T11:46:43.328Z,1.44
2023-02-04T11:47:47.480Z,1.48
2023-02-04T11:48:51.678Z,1.53
2023-02-04T11:49:55.951Z,1.56
2023-02-04T11:51:00.116Z,1.57
2023-02-04T11:52:04.293Z,1.58
2023-02-04T11:53:08.473Z,1.53
2023-02-04T11:54:12.683Z,1.49
2023-02-04T11:55:16.923Z,1.48
2023-02-04T11:56:21.088Z,1.48
2023-02-04T11:57:25.224Z,1.43
2023-02-04T11:58:29.541Z,1.39
2023-02-04T11:59:33.573Z,1.36
2023-02-04T12:00:37.759Z,1.35
2023-02-04T12:01:41.950Z,1.34
2023-02-04T12:02:46.181Z,1.36
2023-02-04T12:03:53.412Z,1.38
2023-02-04T12:04:56.683Z,1.44
2023-02-04T12:06:00.966Z,1.50
2023-02-04T12:07:05.139Z,1.52
2023-02-04T12:08:11.554Z,1.46
2023-02-04T12:09:13.531Z,1.34
2023-02-04T12:10:17.847Z,1.21
2023-02-04T12:11:21.912Z,1.06
2023-02-04T12:12:26.102Z,0.97
2023-02-04T12:13:30.990Z,0.94
2023-02-04T12:14:34.493Z,0.94
2023-02-04T12:15:38.805Z,0.90
2023-02-04T12:16:42.972Z,0.92
2023-02-04T12:17:47.196Z,0.95
2023-02-04T12:18:51.324Z,1.01
2023-02-04T12:19:55.590Z,1.06
2023-02-04T12:20:59.758Z,1.15
2023-02-04T12:22:03.909Z,1.23
2023-02-04T12:23:08.216Z,1.27
2023-02-04T12:24:12.369Z,1.33
2023-02-04T12:25:16.698Z,1.41
2023-02-04T12:26:20.816Z,1.51
2023-02-04T12:27:25.064Z,1.52
2023-02-04T12:28:29.272Z,1.48
2023-02-04T12:29:33.430Z,1.14
2023-02-04T12:30:37.697Z,0.82
2023-02-04T12:31:42.063Z,0.68
2023-02-04T12:33:00.242Z,0.63
2023-02-04T12:34:03.365Z,0.63
2023-02-04T12:35:07.455Z,0.65
2023-02-04T12:36:11.724Z,0.68
2023-02-04T12:37:15.818Z,0.71
2023-02-04T12:38:20.638Z,0.76
2023-02-04T12:39:24.084Z,0.75
2023-02-04T12:40:31.311Z,0.77
2023-02-04T12:41:34.760Z,0.79
2023-02-04T12:42:38.846Z,0.79
2023-02-04T12:43:43.109Z,0.80
2023-02-04T12:44:47.401Z,0.76
2023-02-04T12:45:51.572Z,0.74
2023-02-04T12:46:55.771Z,0.79
2023-02-04T12:47:59.926Z,0.82
2023-02-04T12:49:04.141Z,0.83
2023-02-04T12:50:22.198Z,0.88
2023-02-04T12:51:25.291Z,0.88
2023-02-04T12:52:29.410Z,0.90
2023-02-04T12:53:33.593Z,0.86
2023-02-04T12:54:37.750Z,0.65
2023-02-04T12:55:41.921Z,0.48
2023-02-04T12:56:46.269Z,0.34
2023-02-04T12:57:50.358Z,0.20
2023-02-04T12:58:54.551Z,0.03
2023-02-04T12:59:58.733Z,-0.04
2023-02-04T13:01:04.422Z,0.06
2023-02-04T13:02:07.067Z,0.18
2023-02-04T13:03:11.280Z,0.26
2023-02-04T13:04:15.413Z,0.29
2023-02-04T13:05:19.661Z,0.39
2023-02-04T13:06:23.813Z,0.50
2023-02-04T13:07:28.126Z,0.64
2023-02-04T13:08:32.395Z,0.71
2023-02-04T13:09:36.561Z,0.75
2023-02-04T13:10:40.808Z,0.79
2023-02-04T13:11:44.988Z,0.75
2023-02-04T13:12:52.172Z,0.73
2023-02-04T13:13:55.492Z,0.70
2023-02-04T13:14:59.612Z,0.70
2023-02-04T13:16:03.897Z,0.69
2023-02-04T13:17:08.014Z,0.69
2023-02-04T13:18:12.206Z,0.66
2023-02-04T13:19:16.381Z,0.64
2023-02-04T13:20:20.666Z,0.65
2023-02-04T13:21:24.804Z,0.66
2023-02-04T13:22:29.921Z,0.68
2023-02-04T13:23:33.832Z,0.75
2023-02-04T13:24:37.968Z,0.70
2023-02-04T13:25:42.169Z,0.57
2023-02-04T13:26:46.403Z,0.52
2023-02-04T13:27:50.523Z,0.50
2023-02-04T13:28:54.590Z,0.49
2023-02-04T13:29:58.907Z,0.53
2023-02-04T13:31:04.478Z,0.52
2023-02-04T13:32:07.188Z,0.57
2023-02-04T13:33:11.495Z,0.58
2023-02-04T13:34:15.514Z,0.61
2023-02-04T13:35:19.893Z,0.66
2023-02-04T13:36:24.135Z,0.64
2023-02-04T13:37:28.434Z,0.68
2023-02-04T13:38:46.465Z,0.68
2023-02-04T13:39:49.476Z,0.68
2023-02-04T13:40:53.531Z,0.62
2023-02-04T13:41:57.774Z,0.56
2023-02-04T13:43:02.087Z,0.58
2023-02-04T13:44:06.234Z,0.53
2023-02-04T13:45:10.474Z,0.54
2023-02-04T13:46:14.609Z,0.57
2023-02-04T13:47:18.771Z,0.59
2023-02-04T13:48:22.894Z,0.61
2023-02-04T13:49:27.102Z,0.62
2023-02-04T13:50:32.601Z,0.69
2023-02-04T13:51:35.914Z,0.72
2023-02-04T13:52:40.256Z,0.73
2023-02-04T13:53:44.357Z,0.66
2023-02-04T13:54:48.521Z,0.59
2023-02-04T13:55:52.844Z,0.53
2023-02-04T13:56:56.877Z,0.45
2023-02-04T13:58:01.165Z,0.41
2023-02-04T13:59:05.339Z,0.42
2023-02-04T14:00:09.592Z,0.45
2023-02-04T14:01:13.721Z,0.46
2023-02-04T14:02:17.947Z,0.49
2023-02-04T14:03:22.067Z,0.51
2023-02-04T14:04:26.274Z,0.48
2023-02-04T14:05:30.422Z,0.43
2023-02-04T14:06:34.710Z,0.41
2023-02-04T14:07:38.815Z,0.42
2023-02-04T14:08:43.035Z,0.34
2023-02-04T14:09:47.203Z,0.27
2023-02-04T14:10:51.357Z,0.22
2023-02-04T14:11:55.632Z,0.20
2023-02-04T14:12:59.783Z,0.23
2023-02-04T14:14:03.961Z,0.26
2023-02-04T14:15:08.170Z,0.31
2023-02-04T14:16:12.398Z,0.35
2023-02-04T14:17:16.546Z,0.36
2023-02-04T14:18:20.740Z,0.41
2023-02-04T14:19:24.952Z,0.43